createdAt,value
2018-03-25T00:00:47.527Z,14.97
2018-03-25T00:05:50.070Z,16.10
2018-03-25T00:10:52.620Z,15.53
2018-03-25T00:15:55.175Z,16.50
2018-03-25T00:20:57.708Z,15.23
2018-03-25T00:26:00.356Z,16.00
2018-03-25T00:31:02.897Z,15.20
2018-03-25T00:36:06.219Z,14.67
2018-03-25T00:41:08.787Z,14.00
2018-03-25T00:46:11.325Z,15.03
2018-03-25T00:51:13.850Z,15.77
2018-03-25T00:56:16.398Z,14.20
2018-03-25T01:01:18.943Z,14.90
2018-03-25T01:06:21.481Z,15.60
2018-03-25T01:11:24.035Z,15.17
2018-03-25T01:16:26.579Z,15.07
2018-03-25T01:21:29.132Z,16.20
2018-03-25T01:26:31.683Z,14.13
2018-03-25T01:31:34.232Z,16.63
2018-03-25T01:36:36.774Z,14.60
2018-03-25T01:41:39.306Z,14.10
2018-03-25T01:46:41.859Z,14.90
2018-03-25T01:51:44.413Z,15.63
2018-03-25T01:56:46.956Z,13.33
2018-03-25T02:01:49.498Z,14.50
2018-03-25T02:06:52.078Z,15.17
2018-03-25T02:11:54.675Z,14.43
2018-03-25T02:16:57.220Z,16.70
2018-03-25T02:21:59.743Z,15.10
2018-03-25T02:27:02.312Z,14.80
2018-03-25T02:32:04.886Z,14.80
2018-03-25T02:37:07.426Z,14.40
2018-03-25T02:42:09.994Z,16.73
2018-03-25T02:47:12.571Z,15.50
2018-03-25T02:52:15.725Z,15.37
2018-03-25T02:57:18.271Z,15.50
2018-03-25T03:02:20.816Z,15.27
2018-03-25T03:07:23.376Z,15.10
2018-03-25T03:12:25.920Z,14.23
2018-03-25T03:17:28.472Z,15.10
2018-03-25T03:22:31.014Z,16.47
2018-03-25T03:27:33.560Z,13.50
2018-03-25T03:32:36.102Z,12.70
2018-03-25T03:37:38.666Z,13.97
2018-03-25T03:42:41.221Z,16.27
2018-03-25T03:47:43.770Z,15.13
2018-03-25T03:52:46.318Z,14.90
2018-03-25T03:57:48.949Z,13.10
2018-03-25T04:02:51.491Z,15.37
2018-03-25T04:07:54.825Z,14.83
2018-03-25T04:12:57.374Z,14.30
2018-03-25T04:17:59.943Z,15.80
2018-03-25T04:23:02.490Z,14.67
2018-03-25T04:28:05.083Z,13.80
2018-03-25T04:33:07.631Z,16.07
2018-03-25T04:38:10.202Z,14.80
2018-03-25T04:43:12.751Z,14.20
2018-03-25T04:48:15.308Z,17.57
2018-03-25T04:53:17.854Z,18.00
2018-03-25T04:58:20.410Z,16.70
2018-03-25T05:03:22.941Z,15.90
2018-03-25T05:08:25.518Z,15.90
2018-03-25T05:13:28.071Z,14.50
2018-03-25T05:18:30.617Z,16.37
2018-03-25T05:23:33.165Z,15.57
2018-03-25T05:28:35.704Z,14.93
2018-03-25T05:33:38.269Z,15.50
2018-03-25T05:38:41.587Z,16.30
2018-03-25T05:43:44.148Z,16.83
2018-03-25T05:48:46.712Z,16.83
2018-03-25T05:53:49.252Z,15.63
2018-03-25T05:58:51.815Z,19.70
2018-03-25T06:03:54.380Z,16.90
2018-03-25T06:08:56.948Z,19.90
2018-03-25T06:13:59.504Z,17.00
2018-03-25T06:19:02.047Z,17.90
2018-03-25T06:24:04.606Z,18.40
2018-03-25T06:29:07.163Z,19.07
2018-03-25T06:34:10.482Z,18.67
2018-03-25T06:39:13.127Z,18.50
2018-03-25T06:44:15.687Z,22.53
2018-03-25T06:49:18.235Z,19.47
2018-03-25T06:54:20.791Z,20.50
2018-03-25T06:59:23.350Z,18.23
2018-03-25T07:04:26.004Z,21.30
2018-03-25T07:09:28.560Z,18.33
2018-03-25T07:14:31.118Z,20.47
2018-03-25T07:19:33.650Z,18.30
2018-03-25T07:24:36.210Z,19.53
2018-03-25T07:29:38.898Z,17.57
2018-03-25T07:34:41.467Z,19.73
2018-03-25T07:39:44.023Z,19.03
2018-03-25T07:44:46.583Z,18.50
2018-03-25T07:49:49.151Z,15.00
2018-03-25T07:54:51.711Z,18.47
2018-03-25T07:59:54.507Z,17.00
2018-03-25T08:04:57.043Z,17.83
2018-03-25T08:09:59.606Z,18.03
2018-03-25T08:15:02.168Z,16.70
2018-03-25T08:20:04.727Z,16.10
2018-03-25T08:25:07.291Z,17.03
2018-03-25T08:30:09.843Z,16.63
2018-03-25T08:35:12.424Z,15.47
2018-03-25T08:40:15.011Z,15.17
2018-03-25T08:45:19.139Z,16.30
2018-03-25T08:50:22.479Z,16.27
2018-03-25T08:55:25.033Z,19.00
2018-03-25T09:00:27.593Z,15.73
2018-03-25T09:05:30.147Z,16.70
2018-03-25T09:10:32.698Z,16.20
2018-03-25T09:15:35.257Z,16.00
2018-03-25T09:20:37.851Z,15.50
2018-03-25T09:25:40.422Z,17.20
2018-03-25T09:30:43.011Z,15.30
2018-03-25T09:35:45.567Z,15.60
2018-03-25T09:40:48.134Z,17.67
2018-03-25T09:45:50.736Z,18.47
2018-03-25T09:50:53.233Z,17.27
2018-03-25T09:55:55.792Z,19.80
2018-03-25T10:01:04.106Z,18.37
2018-03-25T10:06:06.646Z,17.33
2018-03-25T10:11:09.466Z,18.50
2018-03-25T10:16:12.029Z,16.63
2018-03-25T10:21:14.584Z,18.97
2018-03-25T10:26:17.136Z,19.43
2018-03-25T10:31:19.687Z,17.23
2018-03-25T10:36:22.250Z,18.97
2018-03-25T10:41:25.283Z,17.70
2018-03-25T10:46:27.851Z,17.63
2018-03-25T10:51:31.165Z,19.23
2018-03-25T10:56:34.496Z,17.97
2018-03-25T11:01:37.032Z,18.73
2018-03-25T11:06:39.592Z,19.13
2018-03-25T11:11:42.162Z,20.40
2018-03-25T11:16:44.690Z,20.00
2018-03-25T11:21:47.271Z,19.77
2018-03-25T11:26:49.843Z,20.07
2018-03-25T11:31:52.388Z,20.77
2018-03-25T11:36:54.950Z,20.90
2018-03-25T11:41:57.522Z,20.07
2018-03-25T11:47:00.067Z,18.70
2018-03-25T11:52:03.382Z,19.33
2018-03-25T11:57:05.944Z,18.30
2018-03-25T12:02:09.452Z,19.50
2018-03-25T12:07:11.995Z,20.17
2018-03-25T12:12:14.538Z,20.60
2018-03-25T12:17:17.105Z,19.87
2018-03-25T12:22:20.413Z,17.77
2018-03-25T12:27:22.957Z,17.60
2018-03-25T12:32:25.517Z,17.90
2018-03-25T12:37:28.834Z,19.83
2018-03-25T12:42:31.406Z,17.70
2018-03-25T12:47:33.954Z,19.40
2018-03-25T12:52:36.526Z,19.00
2018-03-25T12:57:39.888Z,17.10
2018-03-25T13:02:42.453Z,19.70
2018-03-25T13:07:45.051Z,18.63
2018-03-25T13:12:47.615Z,19.27
2018-03-25T13:17:50.163Z,17.47
2018-03-25T13:22:52.706Z,18.70
2018-03-25T13:27:55.270Z,17.10
2018-03-25T13:32:57.818Z,17.40
2018-03-25T13:38:00.354Z,16.00
2018-03-25T13:43:02.907Z,15.40
2018-03-25T13:48:05.465Z,16.50
2018-03-25T13:53:08.028Z,15.57
2018-03-25T13:58:10.578Z,12.47
2018-03-25T14:03:13.144Z,14.67
2018-03-25T14:08:15.694Z,14.53
2018-03-25T14:13:18.259Z,13.60
2018-03-25T14:18:20.808Z,15.00
2018-03-25T14:23:23.370Z,15.20
2018-03-25T14:28:25.938Z,14.50
2018-03-25T14:33:28.474Z,13.67
2018-03-25T14:38:31.024Z,13.90
2018-03-25T14:43:33.578Z,15.53
2018-03-25T14:48:36.121Z,15.93
2018-03-25T14:53:39.434Z,15.30
2018-03-25T14:58:41.981Z,16.40
2018-03-25T15:03:44.591Z,16.70
2018-03-25T15:08:47.133Z,14.97
2018-03-25T15:13:49.670Z,17.17
2018-03-25T15:18:52.215Z,16.80
2018-03-25T15:23:57.032Z,15.80
2018-03-25T15:28:59.563Z,15.30
2018-03-25T15:34:02.133Z,14.80
2018-03-25T15:39:04.674Z,31.93
2018-03-25T15:44:08.017Z,16.90
2018-03-25T15:49:10.581Z,13.90
2018-03-25T15:54:13.910Z,14.07
2018-03-25T15:59:16.488Z,14.80
2018-03-25T16:04:19.106Z,14.73
2018-03-25T16:09:22.422Z,15.03
2018-03-25T16:14:24.983Z,14.13
2018-03-25T16:19:27.550Z,14.20
2018-03-25T16:24:30.137Z,16.23
2018-03-25T16:29:32.728Z,15.20
2018-03-25T16:34:35.242Z,16.80
2018-03-25T16:39:37.798Z,16.33
2018-03-25T16:44:40.374Z,13.37
2018-03-25T16:49:42.942Z,15.20
2018-03-25T16:54:45.487Z,14.90
2018-03-25T16:59:48.070Z,14.73
2018-03-25T17:04:50.636Z,12.70
2018-03-25T17:09:53.230Z,13.83
2018-03-25T17:14:55.770Z,15.03
2018-03-25T17:19:58.338Z,13.30
2018-03-25T17:25:00.892Z,13.10
2018-03-25T17:30:03.442Z,14.20
2018-03-25T17:35:06.615Z,11.90
2018-03-25T17:40:09.946Z,11.57
2018-03-25T17:45:12.510Z,11.00
2018-03-25T17:50:15.098Z,11.73
2018-03-25T17:55:17.672Z,17.20
2018-03-25T18:00:20.234Z,12.57
2018-03-25T18:05:22.795Z,11.00
2018-03-25T18:10:25.379Z,10.37
2018-03-25T18:15:27.920Z,12.00
2018-03-25T18:20:31.245Z,11.70
2018-03-25T18:25:33.814Z,11.20
2018-03-25T18:30:36.373Z,10.73
2018-03-25T18:35:38.944Z,10.90
2018-03-25T18:40:41.519Z,12.20
2018-03-25T18:45:44.084Z,11.60
2018-03-25T18:50:46.629Z,12.07
2018-03-25T18:55:49.178Z,11.67
2018-03-25T19:00:51.720Z,11.43
2018-03-25T19:05:54.277Z,11.53
2018-03-25T19:10:56.828Z,10.40
2018-03-25T19:15:59.370Z,12.67
2018-03-25T19:21:01.924Z,11.70
2018-03-25T19:26:04.463Z,11.47
2018-03-25T19:31:07.009Z,12.30
2018-03-25T19:36:09.554Z,13.60
2018-03-25T19:41:12.091Z,11.00
2018-03-25T19:46:14.638Z,13.33
2018-03-25T19:51:17.178Z,11.90
2018-03-25T19:56:19.723Z,12.83
2018-03-25T20:01:22.262Z,13.40
2018-03-25T20:06:24.903Z,12.13
2018-03-25T20:11:28.216Z,11.23
2018-03-25T20:16:30.747Z,13.50
2018-03-25T20:21:33.281Z,13.07
2018-03-25T20:26:35.831Z,14.50
2018-03-25T20:31:38.366Z,13.10
2018-03-25T20:36:40.907Z,15.30
2018-03-25T20:41:43.451Z,14.67
2018-03-25T20:46:45.994Z,13.97
2018-03-25T20:51:48.545Z,13.97
2018-03-25T20:56:51.080Z,13.90
2018-03-25T21:01:53.618Z,16.87
2018-03-25T21:06:56.167Z,16.87
2018-03-25T21:11:58.711Z,16.37
2018-03-25T21:17:01.251Z,16.57
2018-03-25T21:22:03.806Z,16.30
2018-03-25T21:27:06.422Z,15.77
2018-03-25T21:32:08.955Z,17.03
2018-03-25T21:37:11.486Z,16.17
2018-03-25T21:42:14.034Z,15.40
2018-03-25T21:47:16.562Z,20.27
2018-03-25T21:52:19.097Z,21.43
2018-03-25T21:57:21.687Z,17.50
2018-03-25T22:02:24.214Z,17.80
2018-03-25T22:07:26.745Z,15.57
2018-03-25T22:12:29.295Z,16.70
2018-03-25T22:17:31.829Z,14.07
2018-03-25T22:22:34.358Z,14.07
2018-03-25T22:27:36.903Z,14.13
2018-03-25T22:32:39.442Z,13.80
2018-03-25T22:37:41.986Z,13.10
2018-03-25T22:42:44.538Z,14.07
2018-03-25T22:47:47.078Z,16.13
2018-03-25T22:52:49.609Z,14.77
2018-03-25T22:57:52.142Z,14.60
2018-03-25T23:02:54.678Z,13.70
2018-03-25T23:07:57.212Z,13.10
2018-03-25T23:12:59.756Z,15.17
2018-03-25T23:18:02.291Z,14.87
2018-03-25T23:23:04.821Z,15.80
2018-03-25T23:28:07.374Z,13.60
2018-03-25T23:33:09.898Z,15.20
2018-03-25T23:38:12.425Z,14.80
2018-03-25T23:43:14.953Z,14.73
2018-03-25T23:48:17.491Z,14.27
2018-03-25T23:53:20.026Z,13.70
2018-03-25T23:58:22.561Z,14.43
